Time;durP1;ratioP1;P1;durP2;ratioP2;P2;SDS_P1;SDS_P2;PMS_P1;PMS_P2;Temp;Humidity;BMP_temperature;BMP_pressure;BME280_temperature;BME280_humidity;BME280_pressure;Samples;Min_cycle;Max_cycle;Signal;HPM_P1;HPM_P2
2022/11/11 00:01:58;;;;;;;10.10;2.38;;;;;;;9.45;100.00;101889.75;5209249;28;20040;-76
2022/11/11 00:04:28;;;;;;;5.32;2.08;;;;;;;9.42;100.00;101892.38;5211373;28;20022;-76
2022/11/11 00:06:59;;;;;;;8.63;2.60;;;;;;;9.41;100.00;101885.41;5207297;28;20048;-76
2022/11/11 00:09:29;;;;;;;8.93;2.60;;;;;;;9.40;100.00;101886.31;5207270;28;20024;-76
2022/11/11 00:11:59;;;;;;;11.73;2.63;;;;;;;9.36;100.00;101892.44;5210521;28;20045;-76
2022/11/11 00:14:29;;;;;;;9.35;2.90;;;;;;;9.28;100.00;101889.91;5213916;28;20463;-76
2022/11/11 00:25:27;;;;;;;14.88;3.45;;;;;;;9.35;100.00;101886.34;5211431;28;20056;-76
2022/11/11 00:27:57;;;;;;;10.48;3.40;;;;;;;9.35;100.00;101902.00;5213009;28;20037;-76
2022/11/11 00:30:27;;;;;;;10.20;3.10;;;;;;;9.36;100.00;101902.88;5210189;28;20028;-76
2022/11/11 00:32:58;;;;;;;12.48;3.53;;;;;;;9.31;100.00;101899.44;5201126;28;20191;-76
2022/11/11 00:41:06;;;;;;;11.43;3.67;;;;;;;9.25;100.00;101915.13;5199059;28;20033;-76
2022/11/11 00:43:36;;;;;;;10.55;3.45;;;;;;;9.30;100.00;101906.41;5210086;28;20032;-76
2022/11/11 00:51:45;;;;;;;10.52;3.70;;;;;;;9.12;100.00;101916.16;5208721;28;20083;-76
2022/11/11 00:54:15;;;;;;;8.85;3.22;;;;;;;9.12;100.00;101905.72;5208409;28;20053;-76
2022/11/11 00:56:45;;;;;;;16.60;3.92;;;;;;;9.11;100.00;101911.81;5205215;28;20108;-76
2022/11/11 00:59:16;;;;;;;11.93;3.80;;;;;;;9.10;100.00;101915.25;5208762;28;20183;-76
2022/11/11 01:01:46;;;;;;;9.88;3.10;;;;;;;9.09;100.00;101916.13;5203005;28;20021;-76
2022/11/11 01:04:16;;;;;;;11.65;3.05;;;;;;;9.07;100.00;101906.63;5211181;28;20033;-76
2022/11/11 01:06:47;;;;;;;9.38;3.15;;;;;;;9.05;100.00;101916.22;5204251;28;20490;-76
2022/11/11 01:09:17;;;;;;;12.75;3.25;;;;;;;9.05;100.00;101914.44;5204178;28;20029;-76
2022/11/11 01:11:47;;;;;;;9.70;3.00;;;;;;;8.91;100.00;101907.63;5211576;28;20272;-76
2022/11/11 01:14:17;;;;;;;11.43;3.15;;;;;;;8.74;100.00;101906.88;5210942;28;20056;-76
2022/11/11 01:16:48;;;;;;;9.27;3.22;;;;;;;8.65;100.00;101910.41;5202300;28;20038;-76
2022/11/11 01:19:18;;;;;;;7.85;2.70;;;;;;;8.63;100.00;101911.28;5207566;28;20476;-76
2022/11/11 01:21:48;;;;;;;7.63;2.67;;;;;;;8.62;100.00;101901.72;5208528;28;20039;-76
2022/11/11 01:24:18;;;;;;;9.23;2.90;;;;;;;8.53;100.00;101902.66;5210364;28;20389;-76
2022/11/11 01:26:49;;;;;;;11.95;3.40;;;;;;;8.49;100.00;101906.16;5191076;28;20033;-76
2022/11/11 01:29:19;;;;;;;6.07;2.42;;;;;;;8.35;100.00;101910.56;5200169;28;20516;-76
2022/11/11 01:31:49;;;;;;;8.10;2.85;;;;;;;8.42;100.00;101907.06;5203793;28;20021;-76
2022/11/11 01:34:20;;;;;;;7.55;2.67;;;;;;;8.36;100.00;101914.06;5210509;28;20065;-76
2022/11/11 01:36:50;;;;;;;7.57;2.60;;;;;;;8.28;100.00;101918.44;5198652;28;20032;-76
2022/11/11 01:39:20;;;;;;;10.32;2.97;;;;;;;8.18;100.00;101922.81;5204221;28;20395;-76
2022/11/11 01:41:51;;;;;;;8.63;2.90;;;;;;;8.25;100.00;101918.44;5210252;28;20108;-76
2022/11/11 01:44:46;;;;;;;11.52;2.60;;;;;;;8.18;100.00;101925.41;5210716;28;20022;-76
2022/11/11 01:47:18;;;;;;;9.30;2.67;;;;;;;8.24;100.00;101927.97;5201133;28;20495;-76
2022/11/11 01:49:59;;;;;;;7.65;2.40;;;;;;;8.32;100.00;101927.94;5208301;28;20466;-76
2022/11/11 01:52:34;;;;;;;10.32;2.55;;;;;;;8.12;100.00;101937.56;5206725;28;21869;-76
2022/11/11 01:55:12;;;;;;;7.80;2.08;;;;;;;8.14;100.00;101926.28;5202540;28;20060;-76
2022/11/11 01:57:45;;;;;;;6.30;1.90;;;;;;;8.14;100.00;101926.28;5209779;28;20181;-76
2022/11/11 02:00:17;;;;;;;6.13;1.80;;;;;;;8.09;100.00;101933.25;5211211;28;20029;-76
2022/11/11 02:02:51;;;;;;;7.65;2.30;;;;;;;8.04;100.00;101929.78;5209900;28;20025;-76
2022/11/11 02:05:42;;;;;;;8.35;2.05;;;;;;;8.05;100.00;101930.66;5210083;28;20025;-76
2022/11/11 02:08:32;;;;;;;6.07;1.80;;;;;;;8.05;100.00;101925.44;5197694;28;20025;-76
2022/11/11 02:14:34;;;;;;;7.05;1.80;;;;;;;8.01;100.00;101928.94;5208679;28;20048;-76
2022/11/11 02:16:56;;;;;;;7.43;1.95;;;;;;;7.85;100.00;101937.66;5209255;28;20037;-76
2022/11/11 02:19:53;;;;;;;7.68;1.90;;;;;;;7.86;100.00;101935.03;5211868;28;20037;-76
2022/11/11 02:22:43;;;;;;;;;;;;;;;7.88;100.00;101940.25;5210590;28;20483;-76
2022/11/11 02:25:18;;;;;;;10.77;1.85;;;;;;;7.81;100.00;101931.59;5207407;28;19913;-76
2022/11/11 02:27:51;;;;;;;9.87;2.23;;;;;;;7.80;100.00;101924.66;5210306;28;20590;-76
2022/11/11 02:30:21;;;;;;;10.07;2.58;;;;;;;7.75;100.00;101936.84;5210724;28;20067;-76
2022/11/11 02:32:52;;;;;;;5.70;2.10;;;;;;;7.74;100.00;101937.66;5208524;28;20029;-76
2022/11/11 02:35:32;;;;;;;5.78;1.80;;;;;;;7.81;100.00;101941.13;5212492;28;20510;-76
2022/11/11 02:38:07;;;;;;;7.45;2.10;;;;;;;7.78;100.00;101942.03;5211445;28;20095;-76
2022/11/11 02:41:55;;;;;;;7.13;1.90;;;;;;;7.88;100.00;101941.09;5212464;28;20021;-76
2022/11/11 02:43:33;;;;;;;6.85;1.90;;;;;;;7.91;100.00;101937.63;5212113;28;20060;-76
2022/11/11 02:46:05;;;;;;;7.95;2.08;;;;;;;7.71;100.00;101935.09;5216298;28;20068;-75
2022/11/11 02:48:36;;;;;;;8.52;2.03;;;;;;;7.68;100.00;101939.44;5207698;28;20430;-75
2022/11/11 02:51:07;;;;;;;8.80;2.20;;;;;;;7.64;100.00;101948.09;5212534;28;20039;-76
2022/11/11 02:53:37;;;;;;;5.90;1.90;;;;;;;7.68;100.00;101945.50;5213352;28;20377;-76
2022/11/11 02:56:08;;;;;;;7.50;1.83;;;;;;;7.75;100.00;101959.38;5211224;28;20476;-76
2022/11/11 02:58:38;;;;;;;7.93;2.10;;;;;;;7.69;100.00;101975.00;5210492;28;20098;-76
2022/11/11 03:01:08;;;;;;;7.25;2.22;;;;;;;7.73;100.00;101974.97;5214775;28;20044;-76
2022/11/11 03:03:39;;;;;;;8.15;2.13;;;;;;;7.75;100.00;101968.06;5212119;28;20574;-76
2022/11/11 03:06:09;;;;;;;6.38;2.20;;;;;;;7.76;100.00;101980.19;5211661;28;20108;-76
2022/11/11 03:08:39;;;;;;;6.90;2.22;;;;;;;7.76;100.00;101990.59;5202899;28;20026;-76
2022/11/11 03:11:09;;;;;;;6.35;2.15;;;;;;;7.81;100.00;101986.25;5212342;28;20025;-76
2022/11/11 03:13:40;;;;;;;7.90;2.28;;;;;;;7.92;100.00;101976.69;5210427;28;20551;-76
2022/11/11 03:17:38;;;;;;;8.85;2.15;;;;;;;8.02;100.00;101967.13;5205395;28;20379;-75
2022/11/11 03:19:00;;;;;;;7.47;2.28;;;;;;;7.90;100.00;101968.00;5211155;28;20048;-76
2022/11/11 03:21:31;;;;;;;8.60;2.05;;;;;;;7.64;100.00;101954.19;5215214;28;20016;-76
2022/11/11 03:24:01;;;;;;;6.38;1.95;;;;;;;7.64;100.00;101964.59;5207026;28;20049;-76
2022/11/11 03:26:31;;;;;;;6.35;2.25;;;;;;;7.51;100.00;101952.47;5207236;28;20028;-76
2022/11/11 03:29:03;;;;;;;9.13;2.30;;;;;;;7.40;100.00;101963.75;5210897;28;20558;-76
2022/11/11 03:31:33;;;;;;;9.32;2.30;;;;;;;7.45;100.00;101962.88;5206873;28;20025;-76
2022/11/11 03:39:56;;;;;;;4.45;2.22;;;;;;;7.56;100.00;101945.50;5208590;28;20446;-76
2022/11/11 03:42:26;;;;;;;8.55;2.22;;;;;;;7.68;100.00;101936.84;5213672;28;20036;-76
2022/11/11 03:44:56;;;;;;;10.18;2.70;;;;;;;7.60;100.00;101931.66;5207429;28;20029;-76
2022/11/11 03:47:27;;;;;;;8.02;2.30;;;;;;;7.56;100.00;101927.31;5207973;28;20048;-76
2022/11/11 03:49:57;;;;;;;8.68;2.35;;;;;;;7.72;100.00;101923.81;5203614;28;20051;-76
2022/11/11 03:52:27;;;;;;;8.32;2.42;;;;;;;7.74;100.00;101924.66;5212566;28;20051;-76
2022/11/11 03:54:57;;;;;;;8.27;2.28;;;;;;;7.89;100.00;101927.22;5212558;28;20125;-76
2022/11/11 03:57:31;;;;;;;6.90;2.35;;;;;;;8.14;100.00;101910.66;5205991;28;20036;-76
2022/11/11 04:00:02;;;;;;;6.38;1.98;;;;;;;8.21;100.00;101909.78;5203329;28;20033;-76
2022/11/11 04:11:13;;;;;;;5.57;1.50;;;;;;;8.59;100.00;101905.22;5214415;28;20052;-76
2022/11/11 04:16:35;;;;;;;7.43;1.50;;;;;;;8.83;100.00;101912.88;5206846;28;20072;-76
2022/11/11 04:22:04;;;;;;;5.80;1.25;;;;;;;9.00;100.00;101903.19;5196254;28;20042;-76
2022/11/11 04:27:24;;;;;;;6.57;1.42;;;;;;;9.14;100.00;101911.78;5209985;28;20025;-76
2022/11/11 04:29:54;;;;;;;6.90;1.45;;;;;;;9.16;100.00;101910.03;5211367;28;20033;-76
2022/11/11 04:32:41;;;;;;;6.30;1.23;;;;;;;9.24;100.00;101902.97;5211071;28;20029;-76
2022/11/11 04:35:12;;;;;;;4.40;1.42;;;;;;;9.22;100.00;101912.56;5203513;28;20029;-76
2022/11/11 04:41:02;;;;;;;7.03;1.42;;;;;;;9.16;100.00;101916.09;5199402;28;20026;-76
2022/11/11 04:43:30;;;;;;;4.72;1.33;;;;;;;9.24;100.00;101908.19;5205840;28;20140;-76
2022/11/11 04:46:01;;;;;;;5.22;1.35;;;;;;;9.13;100.00;101919.59;5201900;28;20097;-76
2022/11/11 04:48:31;;;;;;;5.18;1.63;;;;;;;9.13;100.00;101919.59;5210670;28;20047;-76
2022/11/11 04:51:01;;;;;;;5.93;1.10;;;;;;;8.97;100.00;101918.00;5208889;28;20025;-76
2022/11/11 04:53:33;;;;;;;4.63;1.23;;;;;;;8.82;100.00;101923.31;5212830;28;20465;-76
2022/11/11 04:59:14;;;;;;;4.38;1.40;;;;;;;8.62;100.00;101915.66;5208179;28;20033;-76
2022/11/11 05:04:31;;;;;;;4.00;1.10;;;;;;;8.45;100.00;101919.22;5212475;28;20452;-76
2022/11/11 05:09:51;;;;;;;5.68;1.30;;;;;;;8.43;100.00;101916.63;5212306;28;20025;-77
2022/11/11 05:12:21;;;;;;;4.95;1.45;;;;;;;8.34;100.00;101919.25;5215104;28;20033;-76
2022/11/11 05:23:18;;;;;;;6.38;1.17;;;;;;;8.11;100.00;101947.13;5207956;28;20463;-75
2022/11/11 05:25:49;;;;;;;4.80;1.25;;;;;;;8.10;100.00;101944.50;5211300;28;20020;-76
2022/11/11 05:28:19;;;;;;;5.75;1.52;;;;;;;8.13;100.00;101945.38;5209291;28;20482;-76
2022/11/11 05:30:49;;;;;;;5.32;1.80;;;;;;;8.21;100.00;101946.22;5206491;28;20040;-76
2022/11/11 05:33:19;;;;;;;9.23;2.00;;;;;;;8.33;100.00;101937.50;5208163;28;20479;-76
2022/11/11 05:35:50;;;;;;;4.00;1.63;;;;;;;8.44;100.00;101938.31;5207701;28;20104;-76
2022/11/11 05:38:20;;;;;;;7.32;1.83;;;;;;;8.50;100.00;101936.56;5204171;28;20483;-76
2022/11/11 05:40:51;;;;;;;5.88;1.80;;;;;;;8.53;100.00;101938.28;5211082;28;20034;-76
2022/11/11 05:43:21;;;;;;;6.95;2.05;;;;;;;8.55;100.00;101937.38;5209920;28;20051;-76
2022/11/11 05:45:51;;;;;;;4.45;1.48;;;;;;;8.60;100.00;101947.78;5210214;28;20493;-76
2022/11/11 05:48:22;;;;;;;4.75;1.60;;;;;;;8.60;100.00;101951.28;5208998;28;20033;-76
2022/11/11 05:50:52;;;;;;;4.47;1.60;;;;;;;8.61;100.00;101947.78;5209294;28;20028;-76
2022/11/11 05:53:22;;;;;;;4.28;1.77;;;;;;;8.62;100.00;101946.91;5209869;28;20041;-76
2022/11/11 05:55:53;;;;;;;4.63;1.70;;;;;;;8.67;100.00;101952.97;5208363;28;20044;-76
2022/11/11 05:58:23;;;;;;;6.13;1.80;;;;;;;8.59;100.00;101959.94;5208717;28;20513;-76
2022/11/11 06:00:53;;;;;;;4.03;1.67;;;;;;;8.55;100.00;101954.78;5211143;28;20108;-76
2022/11/11 06:03:24;;;;;;;5.70;1.58;;;;;;;8.52;100.00;101963.47;5213088;28;20450;-76
2022/11/11 06:05:54;;;;;;;11.38;1.90;;;;;;;8.46;100.00;101962.63;5208652;28;20029;-76
2022/11/11 06:08:24;;;;;;;6.10;1.52;;;;;;;8.39;100.00;101964.38;5202006;28;20110;-76
2022/11/11 06:10:54;;;;;;;3.00;1.25;;;;;;;8.31;100.00;101971.38;5212691;28;20052;-76
2022/11/11 06:13:25;;;;;;;6.18;1.70;;;;;;;8.34;100.00;101975.69;5208821;28;20033;-76
2022/11/11 06:15:56;;;;;;;5.63;1.73;;;;;;;8.29;100.00;101977.47;5211235;28;20090;-76
2022/11/11 06:18:27;;;;;;;4.60;1.45;;;;;;;8.27;100.00;101982.69;5212744;28;20048;-76
2022/11/11 06:20:58;;;;;;;4.30;1.50;;;;;;;8.23;100.00;101988.75;5214143;28;20029;-75
2022/11/11 06:23:28;;;;;;;7.05;2.08;;;;;;;8.22;100.00;101997.44;5219223;28;20043;-76
2022/11/11 06:26:15;;;;;;;4.78;1.55;;;;;;;8.22;100.00;101994.84;5220226;28;20402;-75
2022/11/11 06:28:56;;;;;;;5.20;1.40;;;;;;;8.30;100.00;102000.91;5210805;28;20037;-76
2022/11/11 06:31:26;;;;;;;6.70;1.88;;;;;;;8.28;100.00;101996.56;5212074;28;20033;-75
2022/11/11 06:33:57;;;;;;;10.77;1.85;;;;;;;8.31;100.00;101997.44;5207366;28;20491;-76
2022/11/11 06:36:28;;;;;;;7.13;2.00;;;;;;;8.23;100.00;102001.78;5208026;28;20029;-75
2022/11/11 06:38:59;;;;;;;4.07;1.50;;;;;;;8.28;100.00;102005.25;5202977;28;20083;-76
2022/11/11 06:41:29;;;;;;;6.45;2.00;;;;;;;8.21;100.00;101998.31;5215238;28;20490;-76
2022/11/11 06:43:59;;;;;;;8.50;1.60;;;;;;;8.22;100.00;102000.03;5223423;28;20040;-76
2022/11/11 06:46:30;;;;;;;5.65;1.58;;;;;;;8.21;100.00;102000.06;5220570;28;20520;-75
2022/11/11 06:49:00;;;;;;;8.43;1.92;;;;;;;8.21;100.00;101990.50;5215245;28;20040;-76
2022/11/11 06:51:30;;;;;;;4.30;1.80;;;;;;;8.23;100.00;101996.56;5212481;28;20033;-76
2022/11/11 06:54:01;;;;;;;8.25;2.10;;;;;;;8.35;100.00;101983.50;5213255;28;20029;-76
2022/11/11 06:56:31;;;;;;;6.85;2.03;;;;;;;8.46;100.00;101986.94;5209795;28;20112;-76
2022/11/11 06:59:01;;;;;;;4.47;1.60;;;;;;;8.56;100.00;101983.41;5215214;28;20453;-75
2022/11/11 07:01:31;;;;;;;5.38;1.85;;;;;;;8.62;100.00;101980.78;5211828;28;20475;-76
2022/11/11 07:04:02;;;;;;;8.13;1.73;;;;;;;8.69;100.00;101989.44;5215323;28;20094;-76
2022/11/11 07:06:32;;;;;;;6.75;1.70;;;;;;;8.74;100.00;101978.09;5204232;28;20056;-76
2022/11/11 07:09:02;;;;;;;5.97;1.60;;;;;;;8.89;100.00;101983.22;5204798;28;20521;-75
2022/11/11 07:11:33;;;;;;;9.38;1.90;;;;;;;8.91;100.00;101971.03;5215679;28;20494;-76
2022/11/11 07:14:03;;;;;;;9.00;1.75;;;;;;;9.00;100.00;101975.31;5214810;28;20086;-75
2022/11/11 07:16:33;;;;;;;7.07;1.88;;;;;;;9.01;100.00;101970.13;5216688;28;20033;-76
2022/11/11 07:19:03;;;;;;;5.53;1.70;;;;;;;9.07;100.00;101970.06;5214591;28;20204;-76
2022/11/11 07:21:34;;;;;;;4.43;1.58;;;;;;;9.14;100.00;101982.19;5209471;28;20036;-75
2022/11/11 07:24:04;;;;;;;3.13;1.42;;;;;;;9.13;100.00;101976.97;5213800;28;20441;-76
2022/11/11 07:26:34;;;;;;;3.55;1.40;;;;;;;9.09;100.00;101970.91;5207672;28;20024;-75
2022/11/11 07:29:05;;;;;;;5.65;1.60;;;;;;;9.20;100.00;101974.31;5211687;28;20033;-76
2022/11/11 07:31:35;;;;;;;5.70;1.60;;;;;;;9.02;100.00;101978.78;5204172;28;20487;-75
2022/11/11 07:34:06;;;;;;;6.05;1.60;;;;;;;8.97;100.00;101984.06;5213592;28;20025;-76
2022/11/11 07:36:36;;;;;;;8.90;2.33;;;;;;;9.04;100.00;101990.09;5205902;28;20057;-75
2022/11/11 07:39:06;;;;;;;10.18;2.80;;;;;;;9.09;100.00;101983.94;5204694;28;20083;-76
2022/11/11 07:41:36;;;;;;;8.57;2.28;;;;;;;9.31;100.00;101977.72;5214052;28;20457;-75
2022/11/11 07:44:07;;;;;;;8.68;2.17;;;;;;;9.55;100.00;101987.94;5211601;28;20112;-76
2022/11/11 07:46:37;;;;;;;6.90;2.22;;;;;;;9.66;100.00;101993.94;5214206;28;20472;-73
2022/11/11 07:49:07;;;;;;;6.53;2.20;;;;;;;9.77;100.00;102000.78;5210842;28;20087;-76
2022/11/11 07:51:38;;;;;;;3.97;1.65;;;;;;;9.92;100.00;102002.38;5214034;28;20120;-75
2022/11/11 07:54:08;;;;;;;9.18;2.15;;;;;;;9.99;99.68;102007.50;5212940;28;20501;-75
2022/11/11 07:56:38;;;;;;;6.43;1.67;;;;;;;10.21;98.61;102016.03;5210620;28;20030;-75
2022/11/11 07:59:09;;;;;;;3.85;1.55;;;;;;;10.27;97.72;102011.59;5213758;28;20020;-76
2022/11/11 08:01:39;;;;;;;6.50;1.63;;;;;;;10.31;97.60;102005.44;5210726;28;20022;-76
2022/11/11 08:04:09;;;;;;;4.53;1.63;;;;;;;10.39;97.11;102007.97;5212572;28;20060;-76
2022/11/11 08:06:40;;;;;;;8.18;1.67;;;;;;;10.60;96.12;102012.94;5206995;28;20029;-75
2022/11/11 08:09:10;;;;;;;5.55;1.77;;;;;;;10.52;96.15;102012.19;5209493;28;20053;-75
2022/11/11 08:14:29;;;;;;;5.85;2.08;;;;;;;10.62;96.52;102017.28;5210702;28;20186;-75
2022/11/11 08:16:59;;;;;;;5.03;1.67;;;;;;;10.60;96.46;102018.16;5212190;28;20533;-76
2022/11/11 08:19:30;;;;;;;5.30;1.90;;;;;;;10.65;96.64;102016.38;5203290;28;20037;-76
2022/11/11 08:22:00;;;;;;;4.78;2.00;;;;;;;10.65;97.25;102016.38;5213772;28;20033;-76
2022/11/11 08:24:30;;;;;;;6.93;1.90;;;;;;;10.59;97.03;102019.03;5209765;28;20028;-76
2022/11/11 08:27:00;;;;;;;7.90;2.50;;;;;;;10.65;96.46;102021.59;5205157;28;20040;-76
2022/11/11 08:29:31;;;;;;;8.52;2.42;;;;;;;10.71;97.58;102029.34;5210781;28;20164;-75
2022/11/11 08:32:01;;;;;;;8.70;2.70;;;;;;;10.68;96.85;102022.41;5212867;28;20089;-76
2022/11/11 08:34:31;;;;;;;9.80;2.70;;;;;;;10.77;96.18;102024.91;5210420;28;20029;-76
2022/11/11 08:37:02;;;;;;;8.68;2.90;;;;;;;10.76;96.50;102028.41;5205302;28;20029;-76
2022/11/11 08:39:32;;;;;;;9.68;3.10;;;;;;;10.88;96.84;102022.16;5207190;28;20029;-75
2022/11/11 08:42:02;;;;;;;7.20;2.80;;;;;;;10.91;97.62;102022.97;5209825;28;20033;-76
2022/11/11 08:44:33;;;;;;;7.78;2.42;;;;;;;11.00;97.05;102011.53;5214229;28;20550;-75
2022/11/11 08:47:03;;;;;;;6.38;2.13;;;;;;;11.09;96.07;102009.63;5204736;28;20091;-74
2022/11/11 08:49:34;;;;;;;5.68;2.10;;;;;;;11.16;95.31;102012.16;5205239;28;20029;-76
2022/11/11 08:52:04;;;;;;;8.18;2.08;;;;;;;11.28;95.18;102011.94;5206164;28;20021;-76
2022/11/11 08:54:34;;;;;;;7.70;2.08;;;;;;;11.45;94.14;102015.16;5213295;28;20082;-76
2022/11/11 08:57:05;;;;;;;4.32;1.50;;;;;;;11.53;93.02;102013.28;5212837;28;20406;-76
2022/11/11 08:59:35;;;;;;;7.20;2.05;;;;;;;11.44;92.50;102013.44;5213218;28;20036;-75
2022/11/11 09:02:09;;;;;;;5.65;1.58;;;;;;;11.72;91.80;102014.75;5213306;28;20033;-76
2022/11/11 09:04:40;;;;;;;9.80;2.08;;;;;;;11.86;90.81;102002.28;5209954;28;20025;-75
2022/11/11 09:07:10;;;;;;;5.63;1.63;;;;;;;11.92;91.22;101999.53;5205865;28;20112;-75
2022/11/11 09:09:40;;;;;;;5.15;1.55;;;;;;;12.02;91.01;101998.47;5204627;28;20033;-76
2022/11/11 09:12:11;;;;;;;5.13;1.80;;;;;;;12.25;89.86;102008.50;5209768;28;20067;-76
2022/11/11 09:14:41;;;;;;;6.53;1.70;;;;;;;12.30;88.63;102015.38;5210571;28;20066;-75
2022/11/11 09:17:11;;;;;;;5.22;1.80;;;;;;;12.49;88.27;102003.63;5209686;28;20033;-75
2022/11/11 09:19:41;;;;;;;4.10;1.60;;;;;;;12.61;87.17;102016.50;5203263;28;20478;-75
2022/11/11 09:22:12;;;;;;;5.25;1.50;;;;;;;12.74;86.77;102028.47;5205057;28;20029;-74
2022/11/11 09:24:42;;;;;;;5.43;1.55;;;;;;;12.85;86.14;102030.84;5208761;28;20025;-76
2022/11/11 09:27:12;;;;;;;6.88;1.85;;;;;;;12.80;86.05;102033.56;5209794;28;20037;-76
2022/11/11 09:29:43;;;;;;;3.85;1.60;;;;;;;13.08;86.13;102048.72;5211724;28;20216;-76
2022/11/11 09:32:13;;;;;;;10.15;1.77;;;;;;;13.08;85.19;102045.25;5210694;28;20025;-76
2022/11/11 09:34:43;;;;;;;3.28;1.33;;;;;;;13.46;84.95;102053.09;5211813;28;20029;-75
2022/11/11 09:37:14;;;;;;;7.28;1.50;;;;;;;13.49;82.86;102068.78;5199507;28;20497;-75
2022/11/11 09:39:44;;;;;;;5.05;1.60;;;;;;;13.40;83.22;102082.13;5210058;28;20017;-76
2022/11/11 09:42:29;;;;;;;5.22;1.70;;;;;;;13.74;81.86;102080.44;5211218;28;20096;-75
2022/11/11 09:45:28;;;;;;;6.67;1.43;;;;;;;13.67;81.21;102084.09;5211051;28;20083;-75
2022/11/11 09:48:16;;;;;;;4.75;1.52;;;;;;;13.59;80.23;102086.91;5210786;28;20525;-76
2022/11/11 09:50:53;;;;;;;3.38;1.42;;;;;;;13.51;81.17;102085.38;5208746;28;20043;-76
2022/11/11 09:53:38;;;;;;;4.90;1.17;;;;;;;13.44;80.52;102084.63;5209235;28;20422;-75
2022/11/11 09:56:16;;;;;;;5.57;1.27;;;;;;;13.57;81.75;102087.88;5205194;28;20043;-75
2022/11/11 09:58:56;;;;;;;4.88;1.48;;;;;;;13.51;80.68;102098.50;5208206;28;20036;-76
2022/11/11 10:01:31;;;;;;;3.75;1.10;;;;;;;13.57;81.03;102085.25;5209288;28;20033;-75
2022/11/11 10:04:32;;;;;;;4.15;1.17;;;;;;;13.65;81.57;102091.16;5212847;28;20348;-76
2022/11/11 10:07:12;;;;;;;5.15;1.23;;;;;;;13.78;80.66;102089.97;5205441;28;20172;-76
2022/11/11 10:09:52;;;;;;;4.03;1.50;;;;;;;13.66;81.25;102096.41;5206704;28;20033;-76
2022/11/11 10:12:32;;;;;;;5.07;1.45;;;;;;;13.76;81.06;102100.50;5209873;28;20686;-76
2022/11/11 10:15:04;;;;;;;5.03;1.45;;;;;;;13.99;81.30;102102.56;5212733;28;20037;-76
2022/11/11 10:17:45;;;;;;;4.45;1.70;;;;;;;14.01;82.17;102100.75;5201514;28;20507;-75
2022/11/11 10:20:28;;;;;;;8.77;1.80;;;;;;;13.97;82.20;102096.50;5206764;28;20388;-75
2022/11/11 10:23:20;;;;;;;4.28;1.50;;;;;;;14.09;82.41;102107.56;5211712;28;20457;-75
2022/11/11 10:25:53;;;;;;;6.47;1.77;;;;;;;13.86;82.50;102096.75;5208132;28;20029;-76
2022/11/11 10:28:29;;;;;;;4.22;1.50;;;;;;;14.10;82.03;102098.75;5207485;28;20029;-76
2022/11/11 10:31:01;;;;;;;6.28;1.42;;;;;;;14.03;83.09;102097.22;5209116;28;20113;-75
2022/11/11 10:33:43;;;;;;;4.78;1.40;;;;;;;14.13;82.28;102103.09;5212327;28;20505;-76
2022/11/11 10:36:18;;;;;;;3.50;1.30;;;;;;;13.96;81.92;102098.28;5197098;28;20029;-75
2022/11/11 10:39:03;;;;;;;4.10;1.20;;;;;;;13.89;80.37;102111.59;5200068;28;20580;-75
2022/11/11 10:41:39;;;;;;;4.65;1.35;;;;;;;13.95;81.45;102108.81;5204355;28;20029;-76
2022/11/11 10:44:26;;;;;;;4.65;1.20;;;;;;;14.05;81.16;102107.69;5211640;28;20059;-76
2022/11/11 10:47:23;;;;;;;3.10;1.35;;;;;;;13.88;80.60;102107.25;5210800;28;20021;-76
2022/11/11 10:50:03;;;;;;;4.28;1.30;;;;;;;13.92;79.48;102103.63;5209776;28;20036;-76
2022/11/11 10:52:39;;;;;;;6.65;1.52;;;;;;;13.73;80.77;102112.88;5205690;28;20569;-75
2022/11/11 10:55:16;;;;;;;4.60;1.38;;;;;;;13.89;79.75;102112.44;5207588;28;20033;-75
2022/11/11 10:58:36;;;;;;;4.45;1.48;;;;;;;13.83;80.18;102106.47;5211611;28;20037;-75
2022/11/11 11:01:11;;;;;;;3.60;1.40;;;;;;;13.74;80.38;102111.97;5215353;28;20059;-75
2022/11/11 11:03:48;;;;;;;3.33;1.30;;;;;;;13.90;80.81;102115.97;5212636;28;20024;-75
2022/11/11 11:06:24;;;;;;;4.45;1.60;;;;;;;13.96;80.47;102113.16;5202284;28;20038;-75
2022/11/11 11:09:29;;;;;;;4.78;1.40;;;;;;;13.98;80.88;102116.63;5204789;28;20029;-76
2022/11/11 11:12:05;;;;;;;3.55;1.35;;;;;;;13.96;80.06;102114.06;5210742;28;20040;-75
2022/11/11 11:14:40;;;;;;;5.38;1.83;;;;;;;14.03;80.03;102109.47;5205942;28;20041;-75
2022/11/11 11:17:16;;;;;;;4.18;1.23;;;;;;;14.00;79.69;102110.44;5211931;28;20041;-75
2022/11/11 11:20:11;;;;;;;2.78;1.10;;;;;;;14.14;80.50;102112.72;5213551;28;20040;-76
2022/11/11 11:22:51;;;;;;;4.07;1.40;;;;;;;13.99;79.24;102120.97;5209351;28;20060;-75
2022/11/11 11:25:22;;;;;;;4.75;1.35;;;;;;;14.06;79.36;102112.06;5212993;28;20025;-75
2022/11/11 11:28:08;;;;;;;4.60;1.40;;;;;;;14.06;79.13;102112.91;5213509;28;20043;-75
2022/11/11 11:30:38;;;;;;;6.18;1.45;;;;;;;14.04;79.56;102109.44;5208722;28;20025;-76
2022/11/11 11:33:09;;;;;;;4.30;1.40;;;;;;;14.02;79.39;102108.63;5215165;28;20430;-75
2022/11/11 11:35:43;;;;;;;8.98;1.40;;;;;;;14.06;80.25;102099.75;5207144;28;20503;-75
2022/11/11 11:38:14;;;;;;;3.03;1.40;;;;;;;14.13;79.16;102100.47;5202128;28;20039;-74
2022/11/11 11:40:55;;;;;;;4.20;1.38;;;;;;;14.09;78.76;102098.81;5211095;28;20029;-75
2022/11/11 11:43:41;;;;;;;2.80;1.27;;;;;;;14.11;78.62;102095.22;5204143;28;20025;-75
2022/11/11 11:46:24;;;;;;;6.20;1.70;;;;;;;14.11;78.01;102097.84;5209246;28;20033;-74
2022/11/11 11:49:25;;;;;;;5.97;1.58;;;;;;;14.09;78.71;102096.19;5211390;28;20284;-75
2022/11/11 11:52:06;;;;;;;3.30;1.20;;;;;;;14.17;78.49;102091.63;5212917;28;20444;-73
2022/11/11 11:54:54;;;;;;;4.82;1.40;;;;;;;14.10;78.60;102084.78;5202601;28;20021;-75
2022/11/11 11:57:36;;;;;;;3.38;1.40;;;;;;;14.10;77.85;102096.13;5210751;28;20021;-75
2022/11/11 12:00:34;;;;;;;2.95;1.30;;;;;;;14.28;78.17;102100.09;5207564;28;20029;-75
2022/11/11 12:03:30;;;;;;;5.32;1.75;;;;;;;14.23;77.08;102091.47;5199548;28;20503;-75
2022/11/11 12:06:19;;;;;;;9.30;1.50;;;;;;;14.18;78.75;102093.34;5207553;28;20295;-76
2022/11/11 12:09:33;;;;;;;8.98;1.40;;;;;;;14.12;77.20;102088.22;5210609;28;20025;-75
2022/11/11 12:12:40;;;;;;;3.08;1.20;;;;;;;14.19;77.16;102089.81;5210070;28;20029;-75
2022/11/11 12:15:19;;;;;;;2.40;1.10;;;;;;;14.10;76.63;102100.56;5208558;28;20108;-75
2022/11/11 12:17:58;;;;;;;3.30;1.10;;;;;;;14.14;76.48;102097.81;5211979;28;20083;-75
2022/11/11 12:20:40;;;;;;;3.60;1.30;;;;;;;14.27;76.06;102095.75;5213597;28;20029;-75
2022/11/11 12:23:19;;;;;;;3.05;1.20;;;;;;;14.24;75.39;102094.06;5208405;28;20376;-75
2022/11/11 12:25:52;;;;;;;4.78;1.27;;;;;;;14.43;75.51;102099.69;5211325;28;20049;-75
2022/11/11 12:28:44;;;;;;;3.35;1.10;;;;;;;14.28;75.39;102092.22;5206338;28;20036;-76
2022/11/11 12:31:52;;;;;;;2.65;1.10;;;;;;;14.23;76.11;102094.94;5201398;28;20037;-76
2022/11/11 12:34:25;;;;;;;4.47;1.02;;;;;;;14.27;75.06;102090.50;5211161;28;20030;-75
2022/11/11 12:37:32;;;;;;;4.43;1.05;;;;;;;14.30;75.68;102093.03;5206652;28;20054;-76
2022/11/11 12:40:14;;;;;;;2.47;0.90;;;;;;;14.25;75.32;102095.78;5210824;28;20067;-76
2022/11/11 12:43:23;;;;;;;3.42;1.08;;;;;;;14.28;76.01;102089.59;5208035;28;20026;-75
2022/11/11 12:46:16;;;;;;;5.13;1.20;;;;;;;14.41;75.44;102102.34;5122630;28;20512;-74
2022/11/11 12:48:55;;;;;;;4.60;1.48;;;;;;;14.29;76.36;102096.56;5178366;28;20045;-75
2022/11/11 12:51:44;;;;;;;3.60;1.35;;;;;;;14.30;75.78;102093.03;5210468;28;20029;-74
2022/11/11 12:54:23;;;;;;;2.63;1.10;;;;;;;14.41;74.71;102096.25;5209322;28;20482;-76
2022/11/11 12:57:00;;;;;;;2.90;0.98;;;;;;;14.31;75.13;102090.38;5211617;28;20087;-75
2022/11/11 13:00:09;;;;;;;4.45;1.05;;;;;;;14.28;74.47;102092.22;5209726;28;20029;-75
2022/11/11 13:03:07;;;;;;;2.30;1.00;;;;;;;14.30;74.48;102099.16;5205457;28;20025;-75
2022/11/11 13:05:40;;;;;;;3.90;1.23;;;;;;;14.25;75.56;102095.78;5204884;28;20390;-75
2022/11/11 13:08:27;;;;;;;3.75;1.10;;;;;;;14.27;75.07;102101.00;5207573;28;20043;-72
2022/11/11 13:11:28;;;;;;;2.65;1.15;;;;;;;14.31;74.31;102095.63;5209318;28;20041;-75